Time;durP1;ratioP1;P1;durP2;ratioP2;P2;SDS_P1;SDS_P2;PMS_P1;PMS_P2;Temp;Humidity;BMP_temperature;BMP_pressure;BME280_temperature;BME280_humidity;BME280_pressure;Samples;Min_cycle;Max_cycle;Signal;HPM_P1;HPM_P2
2022/07/29 00:01:56;;;;;;;5.63;2.17;;;;;;;;;;5034578;28;20200;-71
2022/07/29 00:04:23;;;;;;;4.00;2.13;;;;;;;;;;5035761;28;20232;-70
2022/07/29 00:06:50;;;;;;;5.17;2.40;;;;;;;;;;5040488;28;20742;-71
2022/07/29 00:09:19;;;;;;;7.17;2.60;;;;;;;;;;5042455;28;20661;-71
2022/07/29 00:11:46;;;;;;;3.00;2.00;;;;;;;;;;5038624;28;20286;-71
2022/07/29 00:14:13;;;;;;;3.90;2.03;;;;;;;;;;5038214;28;20219;-70
2022/07/29 00:16:40;;;;;;;3.37;2.07;;;;;;;;;;5040073;28;20220;-71
2022/07/29 00:19:07;;;;;;;3.67;2.40;;;;;;;;;;5041560;28;20214;-70
2022/07/29 00:21:34;;;;;;;5.40;2.10;;;;;;;;;;5037350;28;20633;-70
2022/07/29 00:24:02;;;;;;;5.40;2.17;;;;;;;;;;5040346;28;20209;-71
2022/07/29 00:26:31;;;;;;;8.57;2.50;;;;;;;;;;5039816;28;20570;-71
2022/07/29 00:28:58;;;;;;;6.57;2.47;;;;;;;;;;5036975;28;20203;-71
2022/07/29 00:31:26;;;;;;;3.30;2.10;;;;;;;;;;5038228;28;20653;-72
2022/07/29 00:33:53;;;;;;;7.43;2.30;;;;;;;;;;5040433;28;20218;-72
2022/07/29 00:36:20;;;;;;;10.27;2.30;;;;;;;;;;5039191;28;20231;-71
2022/07/29 00:38:47;;;;;;;10.40;2.40;;;;;;;;;;5040119;28;20203;-70
2022/07/29 00:41:14;;;;;;;6.23;2.30;;;;;;;;;;5040292;28;20761;-70
2022/07/29 00:43:43;;;;;;;6.47;2.37;;;;;;;;;;5041631;28;20297;-70
2022/07/29 00:46:10;;;;;;;9.57;2.40;;;;;;;;;;5039338;28;20309;-70
2022/07/29 00:48:38;;;;;;;6.63;2.40;;;;;;;;;;5037148;28;20207;-70
2022/07/29 00:51:07;;;;;;;9.13;2.07;;;;;;;;;;5037781;28;20203;-70
2022/07/29 00:53:34;;;;;;;5.97;2.50;;;;;;;;;;5039360;28;20221;-71
2022/07/29 00:56:01;;;;;;;8.13;2.37;;;;;;;;;;5036671;28;20317;-71
2022/07/29 00:58:29;;;;;;;3.83;2.40;;;;;;;;;;5041394;28;20317;-71
2022/07/29 01:00:57;;;;;;;6.73;2.27;;;;;;;;;;5038766;28;20662;-71
2022/07/29 01:03:25;;;;;;;6.37;2.37;;;;;;;;;;5034501;28;20295;-71
2022/07/29 01:05:52;;;;;;;4.17;2.53;;;;;;;;;;5037170;28;20219;-71
2022/07/29 01:08:20;;;;;;;5.67;2.40;;;;;;;;;;5038083;28;20810;-70
2022/07/29 01:10:47;;;;;;;3.53;2.13;;;;;;;;;;5039602;28;20281;-70
2022/07/29 01:13:16;;;;;;;7.33;2.80;;;;;;;;;;5037503;28;20292;-73
2022/07/29 01:15:45;;;;;;;6.10;1.97;;;;;;;;;;5039404;28;20723;-70
2022/07/29 01:18:18;;;;;;;8.17;2.40;;;;;;;;;;5040913;28;20203;-71
2022/07/29 01:20:55;;;;;;;5.93;2.00;;;;;;;;;;5039383;28;20207;-70
2022/07/29 01:23:37;;;;;;;4.77;2.10;;;;;;;;;;5040244;28;20756;-69
2022/07/29 01:26:13;;;;;;;6.23;2.07;;;;;;;;;;5039007;28;20229;-70
2022/07/29 01:28:45;;;;;;;3.80;1.97;;;;;;;;;;5035914;28;20202;-69
2022/07/29 01:31:14;;;;;;;8.90;2.33;;;;;;;;;;5039384;28;20294;-70
2022/07/29 01:33:49;;;;;;;6.57;2.30;;;;;;;;;;5037401;28;20209;-71
2022/07/29 01:36:17;;;;;;;4.43;2.20;;;;;;;;;;5037787;28;20227;-70
2022/07/29 01:38:47;;;;;;;3.67;2.00;;;;;;;;;;5035708;28;20214;-71
2022/07/29 01:41:15;;;;;;;4.30;2.10;;;;;;;;;;5039403;28;20199;-71
2022/07/29 01:43:46;;;;;;;7.23;2.40;;;;;;;;;;5040759;28;20211;-70
2022/07/29 01:46:15;;;;;;;3.90;2.07;;;;;;;;;;5037680;28;20215;-70
2022/07/29 01:48:43;;;;;;;7.40;2.07;;;;;;;;;;5038717;28;20677;-71
2022/07/29 01:51:14;;;;;;;6.37;2.30;;;;;;;;;;5039382;28;20214;-72
2022/07/29 01:53:45;;;;;;;4.20;2.40;;;;;;;;;;5038655;28;20210;-71
2022/07/29 01:56:13;;;;;;;8.37;2.30;;;;;;;;;;5038070;28;20628;-70
2022/07/29 01:58:43;;;;;;;5.80;1.90;;;;;;;;;;5042120;28;20199;-70
2022/07/29 02:01:11;;;;;;;4.47;2.17;;;;;;;;;;5043959;28;20342;-70
2022/07/29 02:03:39;;;;;;;8.90;2.30;;;;;;;;;;5041283;28;20299;-70
2022/07/29 02:06:08;;;;;;;3.57;2.03;;;;;;;;;;5041936;28;20692;-71
2022/07/29 02:08:38;;;;;;;4.53;2.37;;;;;;;;;;5043046;28;20665;-70
2022/07/29 02:11:05;;;;;;;6.43;2.33;;;;;;;;;;5042905;28;20915;-71
2022/07/29 02:13:33;;;;;;;9.70;2.30;;;;;;;;;;5042731;28;20215;-70
2022/07/29 02:16:02;;;;;;;5.43;2.03;;;;;;;;;;5042689;28;20694;-70
2022/07/29 02:18:32;;;;;;;3.27;2.10;;;;;;;;;;5043318;28;20299;-70
2022/07/29 02:21:00;;;;;;;4.50;2.10;;;;;;;;;;5041265;28;20580;-71
2022/07/29 02:23:28;;;;;;;8.50;2.10;;;;;;;;;;5042129;28;20203;-70
2022/07/29 02:25:56;;;;;;;4.77;2.20;;;;;;;;;;5040329;28;20602;-71
2022/07/29 02:28:24;;;;;;;6.63;2.47;;;;;;;;;;5045386;28;20199;-70
2022/07/29 02:30:52;;;;;;;4.67;2.00;;;;;;;;;;5039865;28;20203;-70
2022/07/29 02:33:21;;;;;;;8.67;2.27;;;;;;;;;;5043198;28;20199;-70
2022/07/29 02:35:50;;;;;;;5.40;2.20;;;;;;;;;;5043443;28;20227;-70
2022/07/29 02:41:11;;;;;;;6.53;1.97;;;;;;;;;;5029441;28;20195;-70
2022/07/29 02:43:38;;;;;;;4.17;1.90;;;;;;;;;;5043043;28;20284;-71
2022/07/29 02:46:06;;;;;;;5.93;2.10;;;;;;;;;;5043159;28;20231;-71
2022/07/29 02:48:36;;;;;;;4.07;2.17;;;;;;;;;;5039745;28;20212;-71
2022/07/29 02:51:07;;;;;;;4.97;1.97;;;;;;;;;;5042565;28;20214;-71
2022/07/29 02:53:35;;;;;;;7.10;2.20;;;;;;;;;;5042119;28;20208;-71
2022/07/29 02:56:06;;;;;;;4.90;1.90;;;;;;;;;;5039986;28;20238;-71
2022/07/29 02:58:34;;;;;;;4.47;1.93;;;;;;;;;;5040227;28;20683;-71
2022/07/29 03:01:02;;;;;;;4.97;2.17;;;;;;;;;;5044757;28;20207;-71
2022/07/29 03:03:31;;;;;;;3.77;1.77;;;;;;;;;;5042326;28;20600;-71
2022/07/29 03:05:59;;;;;;;3.70;1.80;;;;;;;;;;5041927;28;20690;-71
2022/07/29 03:08:28;;;;;;;7.10;1.80;;;;;;;;;;5043917;28;20199;-72
2022/07/29 03:10:55;;;;;;;4.80;1.87;;;;;;;;;;5038988;28;20298;-72
2022/07/29 03:13:23;;;;;;;5.20;1.77;;;;;;;;;;5043056;28;20205;-71
2022/07/29 03:15:50;;;;;;;4.80;1.87;;;;;;;;;;5046348;28;20234;-71
2022/07/29 03:18:17;;;;;;;8.50;2.07;;;;;;;;;;5041138;28;20321;-71
2022/07/29 03:20:44;;;;;;;5.33;2.20;;;;;;;;;;5042785;28;20213;-71
2022/07/29 03:23:12;;;;;;;7.83;2.23;;;;;;;;;;5040351;28;20215;-71
2022/07/29 03:25:40;;;;;;;4.57;2.30;;;;;;;;;;5041866;28;20223;-71
2022/07/29 03:28:08;;;;;;;7.47;2.20;;;;;;;;;;5040364;28;20207;-71
2022/07/29 03:30:35;;;;;;;5.03;2.07;;;;;;;;;;5040466;28;20285;-70
2022/07/29 03:33:02;;;;;;;4.60;1.83;;;;;;;;;;5042021;28;20207;-70
2022/07/29 03:35:31;;;;;;;7.50;2.03;;;;;;;;;;5041598;28;20234;-70
2022/07/29 03:37:58;;;;;;;7.73;2.53;;;;;;;;;;5041921;28;20203;-71
2022/07/29 03:40:29;;;;;;;7.57;2.47;;;;;;;;;;5042083;28;20313;-71
2022/07/29 03:42:58;;;;;;;6.37;2.37;;;;;;;;;;5041123;28;20859;-70
2022/07/29 03:45:26;;;;;;;5.90;2.20;;;;;;;;;;5040169;28;20216;-70
2022/07/29 03:47:56;;;;;;;7.37;2.57;;;;;;;;;;5042905;28;20575;-70
2022/07/29 03:50:23;;;;;;;5.07;2.57;;;;;;;;;;5041521;28;20282;-70
2022/07/29 03:52:51;;;;;;;5.27;2.37;;;;;;;;;;5040794;28;20620;-70
2022/07/29 03:55:18;;;;;;;5.10;2.33;;;;;;;;;;5038638;28;20707;-71
2022/07/29 03:57:46;;;;;;;6.33;2.80;;;;;;;;;;5042887;28;20210;-71
2022/07/29 04:00:16;;;;;;;7.60;2.63;;;;;;;;;;5040605;28;20589;-71
2022/07/29 04:02:47;;;;;;;4.97;2.60;;;;;;;;;;5041165;28;20203;-71
2022/07/29 04:05:15;;;;;;;6.07;2.20;;;;;;;;;;5040304;28;20837;-70
2022/07/29 04:07:45;;;;;;;3.63;2.30;;;;;;;;;;5042619;28;20584;-70
2022/07/29 04:10:12;;;;;;;7.83;2.60;;;;;;;;;;5039188;28;20257;-71
2022/07/29 04:12:39;;;;;;;10.40;2.57;;;;;;;;;;5041501;28;20580;-70
2022/07/29 04:15:07;;;;;;;5.50;2.60;;;;;;;;;;5039183;28;20203;-71
2022/07/29 04:17:35;;;;;;;10.20;2.90;;;;;;;;;;5040830;28;20199;-71
2022/07/29 04:20:02;;;;;;;5.80;2.70;;;;;;;;;;5038033;28;20384;-71
2022/07/29 04:22:29;;;;;;;6.93;2.60;;;;;;;;;;5041508;28;20265;-71
2022/07/29 04:24:57;;;;;;;7.93;2.90;;;;;;;;;;5040784;28;20215;-70
2022/07/29 04:27:24;;;;;;;9.20;2.90;;;;;;;;;;5039760;28;20692;-70
2022/07/29 04:29:51;;;;;;;10.27;2.80;;;;;;;;;;5040359;28;20317;-71
2022/07/29 04:32:19;;;;;;;4.43;2.43;;;;;;;;;;5040639;28;20209;-70
2022/07/29 04:34:48;;;;;;;4.43;2.47;;;;;;;;;;5041572;28;20623;-70
2022/07/29 04:37:15;;;;;;;6.33;2.30;;;;;;;;;;5038631;28;20306;-71
2022/07/29 04:39:42;;;;;;;6.97;2.80;;;;;;;;;;5043181;28;20293;-73
2022/07/29 04:42:09;;;;;;;8.60;2.67;;;;;;;;;;5039090;28;20201;-71
2022/07/29 04:44:37;;;;;;;6.37;2.60;;;;;;;;;;5039074;28;20215;-71
2022/07/29 04:47:04;;;;;;;5.47;2.60;;;;;;;;;;5039653;28;20708;-71
2022/07/29 04:49:31;;;;;;;8.90;2.67;;;;;;;;;;5039897;28;20647;-71
2022/07/29 04:51:59;;;;;;;6.00;2.57;;;;;;;;;;5039359;28;20669;-71
2022/07/29 04:54:27;;;;;;;9.43;2.70;;;;;;;;;;5037478;28;20354;-71
2022/07/29 04:56:54;;;;;;;7.13;2.47;;;;;;;;;;5038327;28;20230;-71
2022/07/29 04:59:21;;;;;;;8.07;2.40;;;;;;;;;;5042349;28;20204;-71
2022/07/29 05:01:48;;;;;;;11.33;2.37;;;;;;;;;;5037986;28;20704;-71
2022/07/29 05:04:15;;;;;;;5.77;2.47;;;;;;;;;;5038013;28;20582;-71
2022/07/29 05:06:43;;;;;;;6.87;3.10;;;;;;;;;;5037468;28;20310;-71
2022/07/29 05:09:11;;;;;;;9.87;2.70;;;;;;;;;;5034699;28;20260;-71
2022/07/29 05:11:38;;;;;;;9.27;2.60;;;;;;;;;;5040969;28;20207;-72
2022/07/29 05:14:05;;;;;;;5.67;2.40;;;;;;;;;;5036037;28;20203;-71
2022/07/29 05:16:33;;;;;;;13.90;2.43;;;;;;;;;;5037544;28;20234;-72
2022/07/29 05:19:00;;;;;;;10.50;2.40;;;;;;;;;;5037840;28;20582;-72
2022/07/29 05:21:27;;;;;;;8.10;2.50;;;;;;;;;;5033437;28;20207;-73
2022/07/29 05:23:54;;;;;;;10.00;2.20;;;;;;;;;;5038998;28;20701;-72
2022/07/29 05:26:23;;;;;;;4.47;1.70;;;;;;;;;;5034627;28;20215;-72
2022/07/29 05:28:50;;;;;;;8.50;2.10;;;;;;;;;;5034411;28;20654;-73
2022/07/29 05:31:17;;;;;;;8.73;2.70;;;;;;;;;;5031799;28;20204;-72
2022/07/29 05:33:45;;;;;;;10.87;2.13;;;;;;;;;;5036675;28;20201;-73
2022/07/29 05:36:12;;;;;;;6.67;2.17;;;;;;;;;;5034430;28;20231;-72
2022/07/29 05:38:39;;;;;;;8.43;2.20;;;;;;;;;;5037132;28;20700;-72
2022/07/29 05:41:07;;;;;;;11.83;2.47;;;;;;;;;;5036639;28;20209;-72
2022/07/29 05:43:35;;;;;;;7.93;2.40;;;;;;;;;;5038983;28;20210;-72
2022/07/29 05:46:02;;;;;;;8.47;2.37;;;;;;;;;;5039365;28;20364;-70
2022/07/29 05:48:30;;;;;;;9.17;2.30;;;;;;;;;;5038667;28;20203;-70
2022/07/29 05:50:57;;;;;;;12.37;2.10;;;;;;;;;;5038606;28;20200;-71
2022/07/29 05:53:24;;;;;;;8.23;2.03;;;;;;;;;;5040293;28;20290;-70
2022/07/29 05:55:52;;;;;;;7.47;2.00;;;;;;;;;;5035623;28;20231;-70
2022/07/29 05:58:19;;;;;;;10.07;2.23;;;;;;;;;;5035432;28;20207;-73
2022/07/29 06:00:48;;;;;;;5.07;1.70;;;;;;;;;;5037708;28;20294;-73
2022/07/29 06:03:15;;;;;;;7.70;2.07;;;;;;;;;;5034517;28;20204;-73
2022/07/29 06:05:42;;;;;;;11.47;2.20;;;;;;;;;;5038305;28;20227;-73
2022/07/29 06:08:09;;;;;;;5.57;1.83;;;;;;;;;;5036158;28;20795;-73
2022/07/29 06:10:37;;;;;;;7.40;1.93;;;;;;;;;;5036597;28;20206;-73
2022/07/29 06:13:04;;;;;;;7.33;2.07;;;;;;;;;;5037834;28;21258;-73
2022/07/29 06:15:31;;;;;;;7.33;1.90;;;;;;;;;;5035952;28;20322;-72
2022/07/29 06:17:59;;;;;;;8.30;1.80;;;;;;;;;;5037264;28;20208;-73
2022/07/29 06:20:29;;;;;;;9.17;2.30;;;;;;;;;;5033757;28;20206;-72
2022/07/29 06:22:56;;;;;;;4.57;1.50;;;;;;;;;;5036417;28;20237;-73
2022/07/29 06:25:23;;;;;;;8.20;1.70;;;;;;;;;;5035169;28;20238;-73
2022/07/29 06:27:50;;;;;;;7.40;1.50;;;;;;;;;;5037151;28;20299;-73
2022/07/29 06:30:17;;;;;;;5.83;1.50;;;;;;;;;;5034579;28;20200;-73
2022/07/29 06:32:44;;;;;;;4.83;1.50;;;;;;;;;;5034863;28;20848;-73
2022/07/29 06:35:13;;;;;;;3.67;1.60;;;;;;;;;;5034963;28;20976;-72
2022/07/29 06:37:40;;;;;;;6.60;1.70;;;;;;;;;;5033690;28;20230;-73
2022/07/29 06:42:53;;;;;;;4.20;1.50;;;;;;;;;;5038071;28;20211;-72
2022/07/29 06:45:20;;;;;;;8.37;1.60;;;;;;;;;;5041249;28;20314;-73
2022/07/29 06:47:48;;;;;;;5.53;1.30;;;;;;;;;;5037615;28;20702;-71
2022/07/29 06:50:16;;;;;;;4.13;1.30;;;;;;;;;;5037329;28;20309;-70
2022/07/29 06:52:44;;;;;;;5.73;1.53;;;;;;;;;;5035954;28;20217;-71
2022/07/29 06:55:11;;;;;;;9.03;1.20;;;;;;;;;;5030700;28;21182;-71
2022/07/29 06:57:38;;;;;;;4.53;1.40;;;;;;;;;;5041629;28;20604;-72
2022/07/29 07:00:06;;;;;;;5.67;1.47;;;;;;;;;;5036333;28;20338;-72
2022/07/29 07:02:33;;;;;;;3.17;1.30;;;;;;;;;;5039662;28;20200;-71
2022/07/29 07:05:00;;;;;;;4.97;1.43;;;;;;;;;;5043262;28;20214;-71
2022/07/29 07:07:29;;;;;;;7.77;1.73;;;;;;;;;;5043027;28;20283;-71
2022/07/29 07:09:56;;;;;;;7.97;1.50;;;;;;;;;;5037718;28;20715;-71
2022/07/29 07:12:23;;;;;;;9.20;1.50;;;;;;;;;;5043097;28;20598;-70
2022/07/29 07:14:50;;;;;;;5.63;1.37;;;;;;;;;;5041934;28;20226;-71
2022/07/29 07:17:18;;;;;;;7.13;1.67;;;;;;;;;;5040867;28;20306;-72
2022/07/29 07:19:45;;;;;;;6.33;1.63;;;;;;;;;;5035532;28;20595;-71
2022/07/29 07:22:13;;;;;;;6.47;1.70;;;;;;;;;;5040631;28;20505;-72
2022/07/29 07:24:41;;;;;;;6.93;1.77;;;;;;;;;;5040944;28;20310;-72
2022/07/29 07:27:08;;;;;;;5.07;1.60;;;;;;;;;;5038567;28;20314;-72
2022/07/29 07:29:36;;;;;;;7.33;1.87;;;;;;;;;;5042077;28;20203;-72
2022/07/29 07:32:03;;;;;;;4.90;1.87;;;;;;;;;;5040379;28;20218;-72
2022/07/29 07:34:30;;;;;;;3.80;1.57;;;;;;;;;;5039777;28;20200;-73
2022/07/29 07:36:58;;;;;;;5.22;1.42;;;;;;;;;;5038559;28;20238;-73
2022/07/29 07:39:25;;;;;;;3.75;1.50;;;;;;;;;;5035534;28;20298;-72
2022/07/29 07:41:54;;;;;;;3.95;1.30;;;;;;;;;;5036414;28;20214;-72
2022/07/29 07:44:21;;;;;;;4.90;1.52;;;;;;;;;;5039062;28;20241;-72
2022/07/29 07:46:48;;;;;;;4.53;1.60;;;;;;;;;;5039437;28;20258;-72
2022/07/29 07:49:15;;;;;;;4.78;1.30;;;;;;;;;;5040125;28;20295;-72
2022/07/29 07:51:43;;;;;;;3.25;1.35;;;;;;;;;;5035364;28;20206;-72
2022/07/29 07:54:10;;;;;;;4.80;1.70;;;;;;;;;;5034556;28;20212;-72
2022/07/29 07:56:37;;;;;;;4.32;1.50;;;;;;;;;;5036416;28;20240;-72
2022/07/29 07:59:05;;;;;;;11.07;1.85;;;;;;;;;;5038729;28;21210;-72
2022/07/29 08:01:32;;;;;;;6.50;1.85;;;;;;;;;;5035201;28;20311;-72
2022/07/29 08:04:00;;;;;;;4.13;1.55;;;;;;;;;;5038613;28;20669;-73
2022/07/29 08:06:27;;;;;;;3.20;1.30;;;;;;;;;;5033257;28;20230;-72
2022/07/29 08:08:54;;;;;;;6.65;1.80;;;;;;;;;;5037756;28;20202;-72
2022/07/29 08:11:21;;;;;;;6.97;1.77;;;;;;;;;;5032485;28;20199;-72
2022/07/29 08:13:49;;;;;;;5.38;1.80;;;;;;;;;;5040591;28;20210;-72
2022/07/29 08:16:17;;;;;;;5.80;1.55;;;;;;;;;;5036600;28;20261;-72
2022/07/29 08:18:45;;;;;;;4.35;1.80;;;;;;;;;;5044707;28;20206;-72
2022/07/29 08:21:12;;;;;;;6.00;1.90;;;;;;;;;;5038789;28;20286;-72
2022/07/29 08:23:44;;;;;;;3.40;1.63;;;;;;;;;;5039507;28;20235;-72
2022/07/29 08:26:12;;;;;;;3.15;1.58;;;;;;;;;;5041763;28;20245;-72
2022/07/29 08:28:39;;;;;;;4.23;1.93;;;;;;;;;;5039978;28;20694;-71
2022/07/29 08:31:07;;;;;;;10.80;1.70;;;;;;;;;;5041859;28;20650;-72
2022/07/29 08:33:35;;;;;;;5.53;1.83;;;;;;;;;;5037586;28;20280;-72
2022/07/29 08:36:02;;;;;;;5.70;1.80;;;;;;;;;;5028374;28;20720;-72
2022/07/29 08:38:29;;;;;;;7.13;1.97;;;;;;;;;;5039922;28;20276;-72
2022/07/29 08:40:57;;;;;;;8.97;2.23;;;;;;;;;;5039098;28;20209;-71
2022/07/29 08:43:24;;;;;;;6.77;2.00;;;;;;;;;;5038277;28;20705;-71
2022/07/29 08:45:52;;;;;;;3.83;1.87;;;;;;;;;;5038898;28;20708;-72
2022/07/29 08:48:21;;;;;;;3.60;1.97;;;;;;;;;;5040183;28;20207;-71
2022/07/29 08:50:51;;;;;;;6.77;1.80;;;;;;;;;;5040135;28;20296;-72
2022/07/29 08:53:18;;;;;;;6.97;2.20;;;;;;;;;;5040487;28;20692;-71
2022/07/29 08:55:47;;;;;;;6.67;1.87;;;;;;;;;;5041475;28;20231;-71
2022/07/29 08:58:15;;;;;;;5.43;2.20;;;;;;;;;;5043578;28;20693;-71
2022/07/29 09:00:44;;;;;;;5.90;2.00;;;;;;;;;;5036538;28;20646;-71
2022/07/29 09:03:13;;;;;;;7.60;2.60;;;;;;;;;;5042664;28;20214;-70
2022/07/29 09:05:42;;;;;;;6.90;2.40;;;;;;;;;;5040548;28;20332;-70
2022/07/29 09:08:11;;;;;;;9.17;2.27;;;;;;;;;;5036024;28;20209;-70
2022/07/29 09:10:39;;;;;;;9.43;2.17;;;;;;;;;;5027911;28;20200;-72
2022/07/29 09:13:06;;;;;;;6.63;2.10;;;;;;;;;;5039883;28;20204;-71
2022/07/29 09:15:34;;;;;;;2.50;1.80;;;;;;;;;;5038073;28;20322;-71
2022/07/29 09:18:01;;;;;;;4.60;1.87;;;;;;;;;;5037803;28;20306;-71
2022/07/29 09:21:57;;;;;;;4.23;2.03;;;;;;;;;;5039785;28;20199;-70
2022/07/29 09:23:18;;;;;;;4.53;1.90;;;;;;;;;;5038329;28;20421;-72
2022/07/29 09:25:46;;;;;;;7.87;1.97;;;;;;;;;;5036451;28;20224;-71
2022/07/29 09:28:14;;;;;;;5.57;2.20;;;;;;;;;;5042909;28;20199;-72
2022/07/29 09:30:51;;;;;;;7.00;2.10;;;;;;;;;;5038164;28;20205;-72
2022/07/29 09:33:19;;;;;;;6.43;1.87;;;;;;;;;;5037986;28;20198;-72
2022/07/29 09:35:46;;;;;;;9.70;2.00;;;;;;;;;;5036834;28;20777;-72
2022/07/29 09:38:14;;;;;;;9.97;2.20;;;;;;;;;;5037869;28;20227;-72
2022/07/29 09:40:42;;;;;;;3.87;2.10;;;;;;;;;;5038474;28;20200;-73
2022/07/29 09:43:12;;;;;;;4.77;2.17;;;;;;;;;;5035741;28;20584;-73
2022/07/29 09:45:40;;;;;;;6.80;1.97;;;;;;;;;;5037993;28;20233;-72
2022/07/29 09:48:15;;;;;;;6.00;2.00;;;;;;;;;;5033874;28;20585;-72
2022/07/29 09:50:43;;;;;;;3.63;2.07;;;;;;;;;;5039432;28;21585;-72
2022/07/29 09:53:10;;;;;;;6.10;2.00;;;;;;;;;;5034281;28;20230;-72
2022/07/29 09:55:52;;;;;;;3.03;1.90;;;;;;;;;;5036062;28;20223;-73
2022/07/29 09:58:22;;;;;;;7.33;2.10;;;;;;;;;;5036734;28;20234;-72
2022/07/29 10:00:51;;;;;;;12.13;2.27;;;;;;;;;;5040256;28;20290;-72
2022/07/29 10:03:18;;;;;;;6.13;1.87;;;;;;;;;;5041355;28;20561;-71
2022/07/29 10:05:46;;;;;;;3.33;1.90;;;;;;;;;;5037038;28;20698;-72
2022/07/29 10:08:13;;;;;;;6.47;1.90;;;;;;;;;;5044453;28;20202;-72
2022/07/29 10:10:41;;;;;;;6.40;2.00;;;;;;;;;;5039082;28;20309;-72
2022/07/29 10:13:09;;;;;;;7.43;2.10;;;;;;;;;;5040182;28;20572;-72
2022/07/29 10:15:40;;;;;;;4.13;2.07;;;;;;;;;;5040974;28;20235;-72
2022/07/29 10:18:08;;;;;;;4.57;2.40;;;;;;;;;;5045130;28;20214;-72
2022/07/29 10:20:35;;;;;;;9.17;2.17;;;;;;;;;;5042296;28;20211;-72
2022/07/29 10:23:02;;;;;;;3.70;2.00;;;;;;;;;;5044055;28;20207;-71
2022/07/29 10:25:30;;;;;;;9.87;2.07;;;;;;;;;;5040764;28;20713;-72
2022/07/29 10:27:57;;;;;;;7.37;2.13;;;;;;;;;;5038780;28;20209;-73
2022/07/29 10:30:25;;;;;;;7.93;2.30;;;;;;;;;;5041365;28;20561;-71
2022/07/29 10:32:56;;;;;;;10.27;2.50;;;;;;;;;;5038915;28;20291;-72
2022/07/29 10:35:31;;;;;;;3.23;1.97;;;;;;;;;;5035656;28;20232;-72
2022/07/29 10:38:22;;;;;;;7.17;2.20;;;;;;;;;;5042412;28;20299;-72
2022/07/29 10:43:42;;;;;;;5.43;2.33;;;;;;;;;;5039583;28;20333;-72
2022/07/29 10:46:10;;;;;;;5.97;2.37;;;;;;;;;;5040760;28;20306;-72
2022/07/29 10:48:58;;;;;;;3.53;2.17;;;;;;;;;;5042066;28;20720;-72
2022/07/29 10:51:25;;;;;;;6.57;2.03;;;;;;;;;;5039605;28;20210;-72
2022/07/29 10:53:53;;;;;;;4.33;2.10;;;;;;;;;;5043929;28;20207;-72
2022/07/29 10:56:27;;;;;;;3.17;2.10;;;;;;;;;;5044380;28;20227;-73
2022/07/29 10:59:21;;;;;;;3.37;1.97;;;;;;;;;;5041906;28;20235;-73
2022/07/29 11:01:49;;;;;;;3.17;2.10;;;;;;;;;;5019496;28;20203;-72
2022/07/29 11:04:18;;;;;;;5.53;2.37;;;;;;;;;;5041722;28;20286;-72
2022/07/29 11:07:03;;;;;;;3.43;1.93;;;;;;;;;;5040523;28;20613;-71
2022/07/29 11:09:34;;;;;;;4.37;2.00;;;;;;;;;;5045115;28;20301;-72
2022/07/29 11:12:01;;;;;;;5.20;2.00;;;;;;;;;;5043391;28;20208;-72
2022/07/29 11:14:46;;;;;;;3.33;1.90;;;;;;;;;;5036317;28;20302;-71
2022/07/29 11:17:13;;;;;;;6.63;2.60;;;;;;;;;;5037002;28;20276;-73
2022/07/29 11:19:42;;;;;;;3.87;2.27;;;;;;;;;;5036027;28;20207;-71
2022/07/29 11:22:10;;;;;;;7.43;2.00;;;;;;;;;;5039248;28;20212;-71
2022/07/29 11:24:37;;;;;;;5.87;2.43;;;;;;;;;;5042675;28;20212;-72
2022/07/29 11:27:22;;;;;;;6.33;2.27;;;;;;;;;;5037690;28;20233;-72
2022/07/29 11:29:50;;;;;;;5.73;2.07;;;;;;;;;;5038688;28;20210;-72
2022/07/29 11:32:19;;;;;;;3.30;2.20;;;;;;;;;;5045176;28;20207;-72
2022/07/29 11:34:48;;;;;;;4.53;2.33;;;;;;;;;;5043660;28;20211;-72
2022/07/29 11:37:16;;;;;;;3.33;1.90;;;;;;;;;;5042233;28;20769;-71
2022/07/29 11:39:44;;;;;;;3.73;2.30;;;;;;;;;;5041885;28;20199;-71
2022/07/29 11:42:30;;;;;;;4.43;2.17;;;;;;;;;;5041932;28;20223;-72
2022/07/29 11:44:58;;;;;;;6.60;2.40;;;;;;;;;;5042144;28;20234;-72
2022/07/29 11:47:25;;;;;;;8.53;2.30;;;;;;;;;;5040173;28;20234;-72
2022/07/29 11:49:56;;;;;;;3.90;1.93;;;;;;;;;;5045283;28;20200;-73
2022/07/29 11:52:23;;;;;;;5.10;2.20;;;;;;;;;;5038321;28;20208;-72
2022/07/29 11:54:50;;;;;;;8.30;2.40;;;;;;;;;;5043182;28;20207;-72
2022/07/29 11:57:18;;;;;;;5.30;2.60;;;;;;;;;;5037477;28;20701;-72
2022/07/29 11:59:47;;;;;;;3.87;2.20;;;;;;;;;;5042486;28;20195;-72
2022/07/29 12:02:15;;;;;;;4.00;2.63;;;;;;;;;;5040926;28;20207;-72
2022/07/29 12:04:50;;;;;;;3.83;2.10;;;;;;;;;;5040608;28;20616;-72
2022/07/29 12:07:18;;;;;;;5.67;2.43;;;;;;;;;;5040345;28;20544;-72
2022/07/29 12:09:51;;;;;;;3.40;2.27;;;;;;;;;;5036429;28;20195;-72
2022/07/29 12:12:18;;;;;;;3.70;2.30;;;;;;;;;;5041009;28;20598;-72
2022/07/29 12:14:46;;;;;;;3.93;2.37;;;;;;;;;;5039765;28;20219;-72
2022/07/29 12:17:26;;;;;;;6.43;2.23;;;;;;;;;;5041390;28;20241;-72
2022/07/29 12:19:54;;;;;;;5.73;2.37;;;;;;;;;;5039519;28;20214;-72
2022/07/29 12:22:27;;;;;;;4.73;2.40;;;;;;;;;;5041787;28;20689;-71
2022/07/29 12:24:55;;;;;;;3.47;2.30;;;;;;;;;;5039724;28;20211;-72
2022/07/29 12:27:22;;;;;;;3.73;2.30;;;;;;;;;;5039613;28;20199;-72
2022/07/29 12:29:57;;;;;;;5.20;2.60;;;;;;;;;;5038661;28;20231;-72
2022/07/29 12:32:24;;;;;;;3.77;2.23;;;;;;;;;;5041640;28;20666;-72
2022/07/29 12:34:52;;;;;;;3.60;2.10;;;;;;;;;;5038161;28;20891;-73
2022/07/29 12:37:19;;;;;;;3.37;2.00;;;;;;;;;;5035226;28;20204;-72
2022/07/29 12:39:48;;;;;;;3.37;2.20;;;;;;;;;;5033727;28;20712;-72
2022/07/29 12:42:15;;;;;;;3.83;2.20;;;;;;;;;;5040959;28;20303;-72
2022/07/29 12:44:49;;;;;;;4.47;2.10;;;;;;;;;;5045485;28;20669;-72
2022/07/29 12:47:17;;;;;;;2.47;1.80;;;;;;;;;;5042176;28;20203;-72
2022/07/29 12:49:45;;;;;;;3.33;2.23;;;;;;;;;;5041019;28;20297;-72
2022/07/29 12:52:30;;;;;;;3.60;2.10;;;;;;;;;;5033435;28;20214;-72
2022/07/29 12:54:58;;;;;;;12.73;2.60;;;;;;;;;;5039756;28;20290;-73
2022/07/29 12:57:26;;;;;;;3.97;1.90;;;;;;;;;;5041352;28;20289;-72
2022/07/29 13:00:04;;;;;;;5.47;2.37;;;;;;;;;;5042466;28;20220;-72
2022/07/29 13:02:32;;;;;;;7.20;2.33;;;;;;;;;;5039093;28;20207;-72
2022/07/29 13:04:59;;;;;;;3.73;2.00;;;;;;;;;;5038716;28;20204;-72
2022/07/29 13:07:28;;;;;;;4.37;2.40;;;;;;;;;;5035552;28;20209;-72
2022/07/29 13:09:56;;;;;;;3.03;1.90;;;;;;;;;;5040382;28;20295;-71
2022/07/29 13:12:24;;;;;;;4.47;2.40;;;;;;;;;;5039122;28;20212;-71
2022/07/29 13:14:51;;;;;;;3.03;2.23;;;;;;;;;;5034032;28;20204;-72
2022/07/29 13:17:20;;;;;;;6.77;2.63;;;;;;;;;;5024249;28;20199;-72
2022/07/29 13:19:48;;;;;;;3.77;2.07;;;;;;;;;;5027840;28;20676;-72
2022/07/29 13:22:16;;;;;;;6.70;2.33;;;;;;;;;;5028041;28;20262;-72
2022/07/29 13:24:47;;;;;;;4.43;2.30;;;;;;;;;;5030858;28;20199;-72
2022/07/29 13:27:15;;;;;;;3.07;2.10;;;;;;;;;;5032944;28;20602;-72
2022/07/29 13:29:43;;;;;;;4.10;2.20;;;;;;;;;;5034417;28;20213;-72
2022/07/29 13:32:10;;;;;;;4.90;2.20;;;;;;;;;;5029374;28;20963;-72
2022/07/29 13:34:38;;;;;;;3.13;2.10;;;;;;;;;;5025629;28;20213;-72
2022/07/29 13:37:05;;;;;;;6.23;2.70;;;;;;;;;;5029819;28;20354;-72
2022/07/29 13:39:32;;;;;;;3.77;2.20;;;;;;;;;;5035217;28;20225;-72
2022/07/29 13:41:59;;;;;;;2.80;2.10;;;;;;;;;;5030141;28;21422;-72
2022/07/29 13:44:26;;;;;;;5.60;2.40;;;;;;;;;;5041767;28;20203;-73
2022/07/29 13:46:55;;;;;;;3.97;2.20;;;;;;;;;;5039882;28;20225;-72
2022/07/29 13:49:23;;;;;;;2.80;2.33;;;;;;;;;;5038427;28;20207;-72
2022/07/29 13:51:50;;;;;;;8.80;2.53;;;;;;;;;;5039325;28;20461;-72
2022/07/29 13:54:17;;;;;;;3.30;2.10;;;;;;;;;;5042709;28;20673;-72
2022/07/29 13:56:45;;;;;;;7.87;2.33;;;;;;;;;;5040143;28;20232;-73
2022/07/29 13:59:12;;;;;;;3.20;2.20;;;;;;;;;;5045587;28;20614;-73
2022/07/29 14:01:41;;;;;;;5.03;2.30;;;;;;;;;;5047494;28;20292;-72
2022/07/29 14:04:10;;;;;;;5.63;2.30;;;;;;;;;;5040904;28;20230;-73
2022/07/29 14:06:37;;;;;;;4.57;2.40;;;;;;;;;;5046271;28;20234;-72
2022/07/29 14:09:05;;;;;;;3.43;2.37;;;;;;;;;;5044777;28;20730;-72
2022/07/29 14:11:33;;;;;;;5.47;2.40;;;;;;;;;;5040223;28;20676;-73
2022/07/29 14:14:00;;;;;;;4.33;2.10;;;;;;;;;;5044512;28;20237;-73
2022/07/29 14:16:27;;;;;;;3.87;2.13;;;;;;;;;;5038916;28;20229;-72
2022/07/29 14:18:55;;;;;;;7.03;2.50;;;;;;;;;;5045856;28;20224;-72
2022/07/29 14:21:23;;;;;;;4.23;2.13;;;;;;;;;;5045290;28;20227;-72
2022/07/29 14:23:51;;;;;;;7.60;2.20;;;;;;;;;;5044456;28;20239;-72
2022/07/29 14:26:18;;;;;;;2.57;1.93;;;;;;;;;;5045929;28;20580;-72
2022/07/29 14:28:46;;;;;;;5.20;2.23;;;;;;;;;;5044335;28;20202;-73
2022/07/29 14:31:13;;;;;;;3.93;2.37;;;;;;;;;;5044436;28;20203;-73
2022/07/29 14:33:40;;;;;;;2.73;2.17;;;;;;;;;;5040863;28;20209;-72
2022/07/29 14:36:07;;;;;;;4.73;2.20;;;;;;;;;;5043000;28;20306;-72
2022/07/29 14:38:37;;;;;;;5.77;2.40;;;;;;;;;;5039198;28;20224;-73
2022/07/29 14:41:04;;;;;;;2.80;1.90;;;;;;;;;;5044497;28;20211;-74
2022/07/29 14:43:31;;;;;;;3.33;2.27;;;;;;;;;;5042078;28;20205;-71
2022/07/29 14:45:58;;;;;;;5.00;2.33;;;;;;;;;;5045219;28;20227;-71
2022/07/29 14:48:26;;;;;;;3.67;2.43;;;;;;;;;;5044962;28;20210;-71
2022/07/29 14:50:54;;;;;;;5.17;2.80;;;;;;;;;;5044553;28;20468;-71
2022/07/29 14:53:21;;;;;;;6.33;2.13;;;;;;;;;;5044758;28;20659;-72
2022/07/29 14:55:50;;;;;;;6.37;2.60;;;;;;;;;;5042981;28;20227;-72
2022/07/29 14:58:17;;;;;;;3.57;2.40;;;;;;;;;;5039321;28;20654;-72
2022/07/29 15:00:44;;;;;;;5.60;2.60;;;;;;;;;;5045477;28;20649;-71